createdAt,value
2019-05-11T00:02:54.707Z,91.70
2019-05-11T00:07:59.155Z,91.10
2019-05-11T00:13:03.577Z,91.50
2019-05-11T00:18:08.090Z,91.50
2019-05-11T00:23:12.575Z,91.80
2019-05-11T00:28:17.074Z,91.60
2019-05-11T00:33:21.527Z,91.90
2019-05-11T00:38:26.039Z,91.70
2019-05-11T00:43:30.479Z,91.50
2019-05-11T00:48:34.948Z,91.60
2019-05-11T00:53:39.450Z,91.90
2019-05-11T00:58:43.842Z,91.70
2019-05-11T01:03:48.257Z,92.20
2019-05-11T01:08:52.746Z,92.20
2019-05-11T01:13:57.232Z,91.30
2019-05-11T01:19:01.639Z,91.30
2019-05-11T01:24:06.284Z,92.00
2019-05-11T01:29:10.769Z,92.70
2019-05-11T01:34:15.177Z,92.50
2019-05-11T01:39:19.679Z,91.90
2019-05-11T01:44:24.153Z,92.30
2019-05-11T01:49:28.568Z,91.60
2019-05-11T01:54:33.039Z,91.90
2019-05-11T01:59:37.451Z,91.90
2019-05-11T02:04:42.218Z,91.70
2019-05-11T02:09:46.713Z,91.80
2019-05-11T02:14:51.144Z,92.20
2019-05-11T02:19:55.571Z,92.40
2019-05-11T02:24:59.989Z,93.80
2019-05-11T02:30:06.311Z,94.80
2019-05-11T02:35:11.725Z,93.70
2019-05-11T02:40:17.393Z,93.30
2019-05-11T02:45:38.652Z,94.00
2019-05-11T02:50:43.722Z,94.00
2019-05-11T02:55:49.148Z,92.80
2019-05-11T03:00:53.724Z,92.20
2019-05-11T03:05:58.137Z,91.30
2019-05-11T03:11:02.555Z,91.40
2019-05-11T03:16:07.128Z,91.70
2019-05-11T03:21:11.534Z,92.20
2019-05-11T03:26:16.100Z,93.00
2019-05-11T03:31:20.587Z,93.00
2019-05-11T03:36:25.011Z,93.50
2019-05-11T03:41:29.458Z,93.60
2019-05-11T03:46:39.151Z,93.40
2019-05-11T03:51:43.640Z,93.50
2019-05-11T03:56:48.200Z,93.70
2019-05-11T04:01:52.620Z,92.60
2019-05-11T04:06:57.054Z,93.30
2019-05-11T04:12:01.471Z,93.20
2019-05-11T04:17:05.876Z,94.10
2019-05-11T04:22:10.376Z,95.00
2019-05-11T04:27:19.318Z,94.10
2019-05-11T04:32:21.067Z,93.50
2019-05-11T04:37:25.628Z,93.20
2019-05-11T04:42:30.046Z,93.20
2019-05-11T04:47:34.454Z,92.90
2019-05-11T04:52:38.888Z,92.90
2019-05-11T04:57:43.553Z,92.60
2019-05-11T05:02:48.020Z,92.90
2019-05-11T05:07:52.514Z,93.30
2019-05-11T05:13:09.764Z,94.10
2019-05-11T05:18:03.156Z,94.00
2019-05-11T05:23:07.570Z,94.20
2019-05-11T05:28:12.535Z,95.00
2019-05-11T05:33:16.944Z,94.90
2019-05-11T05:38:21.503Z,95.60
2019-05-11T05:43:28.527Z,95.70
2019-05-11T05:48:32.057Z,95.70
2019-05-11T05:53:36.474Z,95.70
2019-05-11T05:58:40.981Z,95.70
2019-05-11T06:03:45.395Z,95.70
2019-05-11T06:08:49.892Z,95.70
2019-05-11T06:13:54.306Z,95.70
2019-05-11T06:18:58.732Z,94.20
2019-05-11T06:24:06.863Z,91.50
2019-05-11T06:29:09.820Z,93.90
2019-05-11T06:34:14.256Z,92.90
2019-05-11T06:39:18.662Z,88.40
2019-05-11T06:44:23.357Z,87.60
2019-05-11T06:49:27.830Z,88.30
2019-05-11T06:54:32.382Z,86.00
2019-05-11T06:59:36.779Z,85.40
2019-05-11T07:04:41.186Z,83.90
2019-05-11T07:09:45.608Z,81.00
2019-05-11T07:14:50.058Z,83.90
2019-05-11T07:19:54.472Z,81.10
2019-05-11T07:24:58.901Z,83.00
2019-05-11T07:30:04.728Z,80.60
2019-05-11T07:35:09.190Z,77.40
2019-05-11T07:40:13.750Z,74.20
2019-05-11T07:45:18.310Z,71.20
2019-05-11T07:50:22.866Z,71.10
2019-05-11T07:55:28.154Z,73.90
2019-05-11T08:00:36.358Z,70.20
2019-05-11T08:05:39.022Z,69.00
2019-05-11T08:10:43.509Z,69.30
2019-05-11T08:15:48.811Z,69.60
2019-05-11T08:20:53.658Z,72.10
2019-05-11T08:25:58.258Z,73.10
2019-05-11T08:31:02.698Z,70.70
2019-05-11T08:36:08.299Z,64.80
2019-05-11T08:41:13.230Z,67.30
2019-05-11T08:46:18.712Z,64.40
2019-05-11T08:51:23.732Z,69.80
2019-05-11T08:56:29.047Z,64.40
2019-05-11T09:01:33.605Z,66.80
2019-05-11T09:06:38.698Z,64.20
2019-05-11T09:11:43.747Z,65.10
2019-05-11T09:16:48.856Z,64.40
2019-05-11T09:21:53.703Z,68.10
2019-05-11T09:26:58.700Z,68.00
2019-05-11T09:32:03.663Z,65.90
2019-05-11T09:37:08.153Z,60.10
2019-05-11T09:42:12.760Z,66.10
2019-05-11T09:47:18.991Z,63.40
2019-05-11T09:52:23.909Z,63.60
2019-05-11T09:57:28.644Z,62.20
2019-05-11T10:02:33.148Z,61.80
2019-05-11T10:07:38.718Z,63.40
2019-05-11T10:12:43.211Z,58.60
2019-05-11T10:17:48.317Z,56.70
2019-05-11T10:22:52.927Z,58.40
2019-05-11T10:27:57.982Z,61.50
2019-05-11T10:33:02.873Z,58.80
2019-05-11T10:38:08.969Z,58.50
2019-05-11T10:43:13.772Z,62.30
2019-05-11T10:48:18.315Z,57.20
2019-05-11T10:53:22.722Z,59.40
2019-05-11T10:58:28.492Z,56.80
2019-05-11T11:03:33.212Z,54.30
2019-05-11T11:08:38.315Z,55.20
2019-05-11T11:13:42.921Z,58.30
2019-05-11T11:18:48.558Z,57.30
2019-05-11T11:23:53.310Z,55.20
2019-05-11T11:28:58.211Z,56.20
2019-05-11T11:34:02.849Z,59.00
2019-05-11T11:39:08.532Z,60.20
2019-05-11T11:44:13.092Z,58.70
2019-05-11T11:49:18.817Z,60.60
2019-05-11T11:54:23.568Z,56.60
2019-05-11T11:59:28.819Z,58.00
2019-05-11T12:04:33.550Z,58.70
2019-05-11T12:09:37.988Z,55.70
2019-05-11T12:14:42.415Z,58.60
2019-05-11T12:19:47.795Z,55.80
2019-05-11T12:24:52.614Z,53.60
2019-05-11T12:29:58.215Z,57.30
2019-05-11T12:35:02.802Z,52.50
2019-05-11T12:40:08.650Z,56.30
2019-05-11T12:45:13.287Z,58.70
2019-05-11T12:50:19.723Z,57.00
2019-05-11T12:55:24.214Z,57.90
2019-05-11T13:00:31.276Z,55.10
2019-05-11T13:05:35.079Z,56.10
2019-05-11T13:10:40.486Z,56.70
2019-05-11T13:15:47.919Z,54.00
2019-05-11T13:20:52.505Z,57.90
2019-05-11T13:25:58.569Z,58.10
2019-05-11T13:31:04.239Z,56.40
2019-05-11T13:36:09.074Z,56.90
2019-05-11T13:41:14.544Z,58.60
2019-05-11T13:46:19.041Z,57.10
2019-05-11T13:51:23.466Z,58.60
2019-05-11T13:56:28.460Z,60.00
2019-05-11T14:01:34.165Z,56.80
2019-05-11T14:06:39.576Z,58.00
2019-05-11T14:11:45.046Z,55.90
2019-05-11T14:16:49.637Z,52.50
2019-05-11T14:21:54.055Z,55.80
2019-05-11T14:26:58.667Z,55.20
2019-05-11T14:32:03.153Z,51.30
2019-05-11T14:37:08.803Z,54.10
2019-05-11T14:42:13.410Z,52.90
2019-05-11T14:47:18.163Z,53.90
2019-05-11T14:52:22.722Z,52.60
2019-05-11T14:57:27.873Z,52.80
2019-05-11T15:02:49.063Z,51.40
2019-05-11T15:07:53.565Z,53.60
2019-05-11T15:12:59.156Z,52.70
2019-05-11T15:18:03.829Z,50.80
2019-05-11T15:23:08.860Z,54.90
2019-05-11T15:28:13.759Z,54.60
2019-05-11T15:33:18.495Z,55.80
2019-05-11T15:38:23.174Z,57.90
2019-05-11T15:43:28.202Z,56.60
2019-05-11T15:48:32.882Z,56.90
2019-05-11T15:53:37.392Z,55.40
2019-05-11T15:58:41.906Z,55.90
2019-05-11T16:03:49.776Z,58.30
2019-05-11T16:08:52.570Z,57.90
2019-05-11T16:13:58.668Z,56.30
2019-05-11T16:19:11.756Z,59.10
2019-05-11T16:24:09.357Z,55.30
2019-05-11T16:29:13.853Z,57.00
2019-05-11T16:34:18.584Z,57.50
2019-05-11T16:39:23.035Z,58.60
2019-05-11T16:44:27.452Z,58.70
2019-05-11T16:49:32.567Z,58.80
2019-05-11T16:54:38.810Z,57.80
2019-05-11T16:59:43.468Z,60.70
2019-05-11T17:04:48.364Z,58.40
2019-05-11T17:09:53.228Z,58.50
2019-05-11T17:14:58.569Z,60.00
2019-05-11T17:20:03.251Z,60.50
2019-05-11T17:25:09.212Z,62.30
2019-05-11T17:30:14.036Z,61.20
2019-05-11T17:35:18.617Z,62.50
2019-05-11T17:40:23.629Z,61.70
2019-05-11T17:45:28.232Z,63.70
2019-05-11T17:50:32.799Z,65.50
2019-05-11T17:55:38.254Z,64.10
2019-05-11T18:00:42.974Z,62.60
2019-05-11T18:05:48.531Z,65.60
2019-05-11T18:10:53.252Z,65.10
2019-05-11T18:15:58.753Z,66.60
2019-05-11T18:21:03.393Z,66.90
2019-05-11T18:26:09.986Z,67.10
2019-05-11T18:31:14.676Z,66.90
2019-05-11T18:36:19.187Z,68.80
2019-05-11T18:41:24.147Z,69.40
2019-05-11T18:46:28.852Z,71.10
2019-05-11T18:51:33.450Z,70.90
2019-05-11T18:56:38.425Z,70.40
2019-05-11T19:01:44.559Z,68.80
2019-05-11T19:06:52.850Z,69.20
2019-05-11T19:11:58.965Z,68.60
2019-05-11T19:17:03.975Z,68.70
2019-05-11T19:22:09.713Z,66.50
2019-05-11T19:27:14.766Z,66.50
2019-05-11T19:32:19.558Z,68.90
2019-05-11T19:37:24.140Z,67.70
2019-05-11T19:42:28.876Z,66.10
2019-05-11T19:47:33.772Z,66.80
2019-05-11T19:52:40.147Z,65.30
2019-05-11T19:57:44.711Z,69.30
2019-05-11T20:02:49.333Z,68.90
2019-05-11T20:07:53.895Z,66.10
2019-05-11T20:12:59.292Z,65.80
2019-05-11T20:18:04.134Z,67.70
2019-05-11T20:23:09.171Z,67.80
2019-05-11T20:28:13.670Z,66.40
2019-05-11T20:33:19.086Z,67.50
2019-05-11T20:38:23.651Z,69.60
2019-05-11T20:43:28.141Z,67.90
2019-05-11T20:48:32.565Z,68.90
2019-05-11T20:53:38.737Z,67.70
2019-05-11T20:58:58.811Z,67.10
2019-05-11T21:04:02.160Z,68.00
2019-05-11T21:09:08.163Z,69.10
2019-05-11T21:14:12.646Z,69.80
2019-05-11T21:19:18.784Z,68.90
2019-05-11T21:24:23.343Z,70.70
2019-05-11T21:29:31.219Z,70.60
2019-05-11T21:34:33.997Z,72.40
2019-05-11T21:39:38.418Z,73.20
2019-05-11T21:44:44.663Z,71.80
2019-05-11T21:49:49.090Z,72.30
2019-05-11T21:54:53.509Z,73.80
2019-05-11T22:00:00.694Z,73.90
2019-05-11T22:05:05.619Z,75.80
2019-05-11T22:10:10.944Z,75.80
2019-05-11T22:15:15.940Z,75.80
2019-05-11T22:20:25.911Z,75.90
2019-05-11T22:25:32.689Z,77.50
2019-05-11T22:30:40.152Z,77.20
2019-05-11T22:35:44.570Z,79.00
2019-05-11T22:40:48.984Z,78.70
2019-05-11T22:45:53.472Z,78.80
2019-05-11T22:50:58.639Z,79.10
2019-05-11T22:56:03.225Z,80.20
2019-05-11T23:01:08.507Z,80.10
2019-05-11T23:06:12.984Z,79.90
2019-05-11T23:11:18.432Z,81.30
2019-05-11T23:16:22.854Z,80.50
2019-05-11T23:21:29.999Z,81.30
2019-05-11T23:26:33.505Z,81.40
2019-05-11T23:31:38.273Z,81.30
2019-05-11T23:36:42.811Z,82.30
2019-05-11T23:41:48.273Z,82.50
2019-05-11T23:46:52.837Z,83.00
2019-05-11T23:51:57.247Z,82.90
2019-05-11T23:57:01.663Z,83.50
